createdAt,value
2018-12-13T00:01:09.438Z,95363.55
2018-12-13T00:03:38.795Z,95372.32
2018-12-13T00:06:08.116Z,95366.36
2018-12-13T00:08:37.629Z,95370.91
2018-12-13T00:11:07.007Z,95370.99
2018-12-13T00:13:36.279Z,95366.08
2018-12-13T00:16:05.520Z,95368.92
2018-12-13T00:18:34.931Z,95369.48
2018-12-13T00:21:04.334Z,95363.31
2018-12-13T00:23:33.640Z,95363.39
2018-12-13T00:26:03.156Z,95366.53
2018-12-13T00:28:32.528Z,95364.45
2018-12-13T00:31:01.852Z,95372.93
2018-12-13T00:33:31.252Z,95372.48
2018-12-13T00:36:00.664Z,95374.94
2018-12-13T00:38:30.244Z,95372.17
2018-12-13T00:40:59.752Z,95372.25
2018-12-13T00:43:29.269Z,95380.62
2018-12-13T00:45:58.660Z,95379.19
2018-12-13T00:48:27.977Z,95384.67
2018-12-13T00:50:57.275Z,95386.19
2018-12-13T00:53:26.556Z,95385.81
2018-12-13T00:55:55.801Z,95390.04
2018-12-13T00:58:25.264Z,95380.66
2018-12-13T01:00:56.687Z,95381.09
2018-12-13T01:03:26.043Z,95376.87
2018-12-13T01:05:55.350Z,95383.48
2018-12-13T01:08:25.112Z,95381.09
2018-12-13T01:10:54.347Z,95379.84
2018-12-13T01:13:23.849Z,95376.95
2018-12-13T01:15:53.280Z,95368.86
2018-12-13T01:18:22.521Z,95372.47
2018-12-13T01:20:51.787Z,95371.42
2018-12-13T01:23:21.255Z,95376.05
2018-12-13T01:25:50.582Z,95376.70
2018-12-13T01:28:19.878Z,95378.25
2018-12-13T01:30:49.281Z,95381.55
2018-12-13T01:33:18.587Z,95383.33
2018-12-13T01:35:48.063Z,95384.59
2018-12-13T01:38:17.391Z,95384.53
2018-12-13T01:40:46.685Z,95384.84
2018-12-13T01:43:15.890Z,95384.39
2018-12-13T01:45:45.175Z,95390.90
2018-12-13T01:48:14.499Z,95386.45
2018-12-13T01:50:43.936Z,95385.72
2018-12-13T01:53:13.291Z,95379.39
2018-12-13T01:55:42.584Z,95383.66
2018-12-13T01:58:12.009Z,95376.51
2018-12-13T02:00:41.398Z,95375.83
2018-12-13T02:03:10.699Z,95380.53
2018-12-13T02:05:40.099Z,95377.03
2018-12-13T02:08:09.412Z,95389.95
2018-12-13T02:10:38.926Z,95388.94
2018-12-13T02:13:08.404Z,95390.80
2018-12-13T02:15:37.738Z,95384.59
2018-12-13T02:18:07.129Z,95385.93
2018-12-13T02:20:36.430Z,95378.73
2018-12-13T02:23:05.829Z,95382.52
2018-12-13T02:25:35.131Z,95377.16
2018-12-13T02:28:04.342Z,95375.16
2018-12-13T02:30:33.626Z,95375.16
2018-12-13T02:33:02.968Z,95367.77
2018-12-13T02:35:32.140Z,95366.95
2018-12-13T02:38:01.521Z,95368.01
2018-12-13T02:40:30.840Z,95363.82
2018-12-13T02:43:00.248Z,95369.80
2018-12-13T02:45:29.560Z,95363.75
2018-12-13T02:47:58.960Z,95370.02
2018-12-13T02:50:28.255Z,95357.28
2018-12-13T02:52:57.561Z,95356.67
2018-12-13T02:55:26.960Z,95354.27
2018-12-13T02:57:56.366Z,95357.48
2018-12-13T03:00:25.751Z,95367.11
2018-12-13T03:02:55.069Z,95366.59
2018-12-13T03:05:24.356Z,95366.67
2018-12-13T03:07:53.652Z,95372.68
2018-12-13T03:10:23.055Z,95379.75
2018-12-13T03:12:52.456Z,95371.95
2018-12-13T03:15:21.956Z,95371.25
2018-12-13T03:17:51.278Z,95369.63
2018-12-13T03:20:20.555Z,95367.52
2018-12-13T03:22:49.770Z,95372.07
2018-12-13T03:25:18.950Z,95380.88
2018-12-13T03:27:48.175Z,95385.97
2018-12-13T03:30:17.481Z,95377.84
2018-12-13T03:32:46.682Z,95381.49
2018-12-13T03:35:15.981Z,95381.34
2018-12-13T03:37:45.267Z,95377.61
2018-12-13T03:40:14.667Z,95379.94
2018-12-13T03:42:44.075Z,95370.88
2018-12-13T03:45:13.391Z,95372.13
2018-12-13T03:47:42.775Z,95376.88
2018-12-13T03:50:11.977Z,95369.89
2018-12-13T03:52:41.292Z,95378.81
2018-12-13T03:55:10.687Z,95377.77
2018-12-13T03:57:39.884Z,95368.67
2018-12-13T04:00:09.096Z,95368.84
2018-12-13T04:02:38.383Z,95367.73
2018-12-13T04:05:07.690Z,95362.52
2018-12-13T04:07:37.183Z,95363.92
2018-12-13T04:10:06.651Z,95361.68
2018-12-13T04:12:35.902Z,95364.01
2018-12-13T04:15:05.417Z,95362.75
2018-12-13T04:17:34.808Z,95365.44
2018-12-13T04:20:04.202Z,95370.97
2018-12-13T04:22:33.320Z,95370.06
2018-12-13T04:25:02.705Z,95374.20
2018-12-13T04:27:31.696Z,95377.70
2018-12-13T04:30:00.913Z,95376.36
2018-12-13T04:32:30.211Z,95372.58
2018-12-13T04:34:59.521Z,95375.86
2018-12-13T04:37:35.124Z,95375.25
2018-12-13T04:40:00.202Z,95378.38
2018-12-13T04:42:29.560Z,95379.19
2018-12-13T04:44:58.864Z,95384.84
2018-12-13T04:47:28.047Z,95384.92
2018-12-13T04:49:57.248Z,95389.09
2018-12-13T04:52:26.465Z,95389.62
2018-12-13T04:54:55.812Z,95384.27
2018-12-13T04:57:25.160Z,95396.09
2018-12-13T04:59:54.551Z,95400.84
2018-12-13T05:02:23.891Z,95397.16
2018-12-13T05:04:53.271Z,95402.76
2018-12-13T05:07:22.568Z,95395.97
2018-12-13T05:09:51.874Z,95400.16
2018-12-13T05:12:21.389Z,95397.52
2018-12-13T05:14:50.637Z,95393.67
2018-12-13T05:17:19.765Z,95400.95
2018-12-13T05:19:49.376Z,95398.85
2018-12-13T05:22:18.584Z,95405.50
2018-12-13T05:24:47.863Z,95410.91
2018-12-13T05:27:17.220Z,95417.50
2018-12-13T05:29:46.414Z,95414.67
2018-12-13T05:32:15.879Z,95404.96
2018-12-13T05:34:44.991Z,95410.41
2018-12-13T05:37:14.495Z,95411.05
2018-12-13T05:39:43.787Z,95416.56
2018-12-13T05:42:12.892Z,95417.28
2018-12-13T05:44:42.163Z,95417.58
2018-12-13T05:47:11.485Z,95423.95
2018-12-13T05:49:40.604Z,95423.71
2018-12-13T05:52:09.783Z,95422.46
2018-12-13T05:54:39.093Z,95424.53
2018-12-13T05:57:08.283Z,95420.83
2018-12-13T05:59:37.498Z,95426.30
2018-12-13T06:02:06.608Z,95422.17
2018-12-13T06:04:35.901Z,95416.63
2018-12-13T06:07:05.137Z,95425.07
2018-12-13T06:09:34.375Z,95417.14
2018-12-13T06:12:03.803Z,95420.55
2018-12-13T06:14:33.093Z,95415.94
2018-12-13T06:17:02.485Z,95415.33
2018-12-13T06:19:31.718Z,95422.97
2018-12-13T06:22:00.879Z,95425.30
2018-12-13T06:24:30.098Z,95428.42
2018-12-13T06:26:59.393Z,95425.48
2018-12-13T06:29:28.604Z,95422.91
2018-12-13T06:31:57.887Z,95419.34
2018-12-13T06:34:27.136Z,95414.88
2018-12-13T06:36:56.395Z,95418.02
2018-12-13T06:39:25.919Z,95418.53
2018-12-13T06:41:55.200Z,95422.55
2018-12-13T06:44:24.606Z,95419.49
2018-12-13T06:46:54.207Z,95413.52
2018-12-13T06:49:23.521Z,95417.54
2018-12-13T06:51:52.822Z,95414.88
2018-12-13T06:54:22.163Z,95412.61
2018-12-13T06:56:51.515Z,95416.71
2018-12-13T06:59:20.916Z,95410.34
2018-12-13T07:01:50.316Z,95416.12
2018-12-13T07:04:19.614Z,95409.67
2018-12-13T07:06:48.920Z,95412.04
2018-12-13T07:09:18.240Z,95413.09
2018-12-13T07:11:47.531Z,95410.83
2018-12-13T07:14:16.836Z,95408.70
2018-12-13T07:16:46.135Z,95403.77
2018-12-13T07:19:15.328Z,95404.68
2018-12-13T07:21:44.534Z,95411.59
2018-12-13T07:24:13.840Z,95413.91
2018-12-13T07:26:43.147Z,95414.16
2018-12-13T07:29:12.476Z,95411.84
2018-12-13T07:31:42.108Z,95413.11
2018-12-13T07:34:11.455Z,95416.00
2018-12-13T07:36:40.880Z,95424.28
2018-12-13T07:39:10.383Z,95421.75
2018-12-13T07:41:39.701Z,95422.48
2018-12-13T07:44:09.156Z,95418.82
2018-12-13T07:46:38.564Z,95419.85
2018-12-13T07:49:07.976Z,95419.68
2018-12-13T07:51:37.376Z,95410.73
2018-12-13T07:54:06.689Z,95416.53
2018-12-13T07:56:35.980Z,95417.18
2018-12-13T07:59:05.496Z,95414.13
2018-12-13T08:01:34.893Z,95410.02
2018-12-13T08:04:04.296Z,95420.56
2018-12-13T08:06:33.607Z,95410.89
2018-12-13T08:09:03.255Z,95412.95
2018-12-13T08:11:32.587Z,95412.05
2018-12-13T08:14:02.047Z,95415.37
2018-12-13T08:16:31.423Z,95412.48
2018-12-13T08:19:00.733Z,95411.49
2018-12-13T08:21:30.007Z,95407.47
2018-12-13T08:23:59.275Z,95409.54
2018-12-13T08:26:28.506Z,95406.75
2018-12-13T08:28:57.916Z,95403.45
2018-12-13T08:31:27.343Z,95406.19
2018-12-13T08:33:56.557Z,95406.19
2018-12-13T08:36:25.843Z,95403.19
2018-12-13T08:38:55.337Z,95405.48
2018-12-13T08:41:24.680Z,95400.65
2018-12-13T08:43:54.011Z,95400.85
2018-12-13T08:46:23.451Z,95399.08
2018-12-13T08:48:53.016Z,95401.17
2018-12-13T08:51:22.365Z,95404.58
2018-12-13T08:53:51.755Z,95392.23
2018-12-13T08:56:21.167Z,95397.73
2018-12-13T08:58:50.456Z,95393.13
2018-12-13T09:01:19.882Z,95391.89
2018-12-13T09:03:49.233Z,95392.29
2018-12-13T09:06:18.474Z,95388.21
2018-12-13T09:08:47.735Z,95387.86
2018-12-13T09:11:17.052Z,95387.56
2018-12-13T09:13:46.459Z,95382.91
2018-12-13T09:16:15.781Z,95377.55
2018-12-13T09:18:45.111Z,95378.17
2018-12-13T09:21:14.409Z,95375.48
2018-12-13T09:23:43.672Z,95371.47
2018-12-13T09:26:13.091Z,95377.21
2018-12-13T09:28:42.455Z,95372.90
2018-12-13T09:31:11.604Z,95372.52
2018-12-13T09:33:41.082Z,95360.58
2018-12-13T09:36:10.588Z,95364.34
2018-12-13T09:38:40.111Z,95359.03
2018-12-13T09:41:09.624Z,95352.61
2018-12-13T09:43:38.913Z,95348.17
2018-12-13T09:46:08.115Z,95347.36
2018-12-13T09:48:37.412Z,95338.59
2018-12-13T09:51:06.824Z,95336.88
2018-12-13T09:53:36.202Z,95333.97
2018-12-13T09:56:05.512Z,95326.16
2018-12-13T09:58:34.821Z,95319.87
2018-12-13T10:01:04.312Z,95319.39
2018-12-13T10:03:33.529Z,95321.84
2018-12-13T10:06:02.735Z,95318.87
2018-12-13T10:08:31.928Z,95316.73
2018-12-13T10:11:01.128Z,95320.47
2018-12-13T10:13:30.619Z,95318.36
2018-12-13T10:15:59.829Z,95317.61
2018-12-13T10:18:29.216Z,95316.33
2018-12-13T10:20:58.424Z,95311.83
2018-12-13T10:23:27.824Z,95314.22
2018-12-13T10:25:59.638Z,95302.45
2018-12-13T10:28:28.386Z,95302.77
2018-12-13T10:30:57.785Z,95295.47
2018-12-13T10:33:27.072Z,95286.45
2018-12-13T10:35:56.392Z,95285.75
2018-12-13T10:38:25.802Z,95277.14
2018-12-13T10:40:54.996Z,95278.41
2018-12-13T10:43:24.185Z,95274.42
2018-12-13T10:45:53.491Z,95272.19
2018-12-13T10:48:22.780Z,95260.28
2018-12-13T10:50:52.009Z,95259.76
2018-12-13T10:53:21.392Z,95254.11
2018-12-13T10:55:50.688Z,95249.27
2018-12-13T10:58:19.983Z,95247.09
2018-12-13T11:01:58.226Z,95249.12
2018-12-13T11:04:27.580Z,95243.47
2018-12-13T11:06:56.792Z,95243.31
2018-12-13T11:09:26.100Z,95239.90
2018-12-13T11:11:55.448Z,95238.03
2018-12-13T11:14:24.836Z,95237.50
2018-12-13T11:16:54.128Z,95234.45
2018-12-13T11:19:23.404Z,95231.78
2018-12-13T11:21:52.793Z,95238.69
2018-12-13T11:24:22.078Z,95230.96
2018-12-13T11:26:51.449Z,95232.83
2018-12-13T11:29:34.480Z,95231.98
2018-12-13T11:32:03.968Z,95220.98
2018-12-13T11:34:33.385Z,95219.19
2018-12-13T11:37:02.677Z,95224.55
2018-12-13T11:39:31.976Z,95213.02
2018-12-13T11:42:01.154Z,95207.16
2018-12-13T11:44:30.463Z,95211.45
2018-12-13T11:46:59.963Z,95217.88
2018-12-13T11:49:29.347Z,95215.31
2018-12-13T11:51:58.642Z,95213.56
2018-12-13T11:54:39.994Z,95213.55
2018-12-13T11:57:09.256Z,95210.11
2018-12-13T11:59:38.771Z,95210.33
2018-12-13T12:02:08.191Z,95210.05
2018-12-13T12:04:37.378Z,95209.01
2018-12-13T12:07:06.683Z,95205.05
2018-12-13T12:09:36.164Z,95210.48
2018-12-13T12:12:05.589Z,95209.83
2018-12-13T12:14:34.887Z,95207.44
2018-12-13T12:17:04.310Z,95208.05
2018-12-13T12:19:33.572Z,95203.86
2018-12-13T12:22:02.892Z,95203.12
2018-12-13T12:24:32.270Z,95191.72
2018-12-13T12:27:01.590Z,95190.69
2018-12-13T12:29:31.023Z,95194.11
2018-12-13T12:32:00.303Z,95193.13
2018-12-13T12:34:29.585Z,95189.84
2018-12-13T12:36:58.892Z,95188.05
2018-12-13T12:39:28.307Z,95189.84
2018-12-13T12:41:57.494Z,95195.00
2018-12-13T12:44:30.736Z,95198.79
2018-12-13T12:47:00.115Z,95192.53
2018-12-13T12:49:29.408Z,95187.05
2018-12-13T12:51:58.716Z,95188.67
2018-12-13T12:54:27.895Z,95186.50
2018-12-13T12:56:57.413Z,95187.39
2018-12-13T12:59:26.783Z,95195.08
2018-12-13T13:01:56.117Z,95191.27
2018-12-13T13:04:25.510Z,95198.78
2018-12-13T13:06:54.913Z,95196.87
2018-12-13T13:09:25.221Z,95196.11
2018-12-13T13:11:54.755Z,95200.30
2018-12-13T13:14:24.031Z,95197.75
2018-12-13T13:16:53.239Z,95191.94
2018-12-13T13:19:22.647Z,95188.08
2018-12-13T13:21:51.853Z,95191.13
2018-12-13T13:24:21.258Z,95194.33
2018-12-13T13:26:50.763Z,95196.41
2018-12-13T13:29:20.152Z,95203.94
2018-12-13T13:31:49.327Z,95206.91
2018-12-13T13:34:18.651Z,95202.38
2018-12-13T13:36:47.592Z,95203.44
2018-12-13T13:39:16.955Z,95214.45
2018-12-13T13:41:46.148Z,95218.91
2018-12-13T13:44:15.816Z,95224.20
2018-12-13T13:46:45.216Z,95223.38
2018-12-13T13:49:14.555Z,95223.38
2018-12-13T13:51:43.864Z,95227.03
2018-12-13T13:54:13.215Z,95227.50
2018-12-13T13:56:42.607Z,95220.11
2018-12-13T13:59:11.901Z,95219.98
2018-12-13T14:01:41.181Z,95217.30
2018-12-13T14:04:10.492Z,95220.27
2018-12-13T14:06:39.825Z,95221.08
2018-12-13T14:09:09.099Z,95217.04
2018-12-13T14:11:38.488Z,95211.33
2018-12-13T14:14:07.884Z,95212.82
2018-12-13T14:16:37.235Z,95208.91
2018-12-13T14:19:06.492Z,95207.16
2018-12-13T14:21:35.836Z,95208.94
2018-12-13T14:24:05.101Z,95210.14
2018-12-13T14:26:34.295Z,95208.85
2018-12-13T14:29:03.700Z,95210.58
2018-12-13T14:31:34.608Z,95208.41
2018-12-13T14:34:03.930Z,95205.97
2018-12-13T14:36:33.246Z,95210.28
2018-12-13T14:39:02.701Z,95211.94
2018-12-13T14:41:31.951Z,95210.42
2018-12-13T14:44:01.247Z,95212.44
2018-12-13T14:46:30.559Z,95211.31
2018-12-13T14:48:59.847Z,95209.69
2018-12-13T14:51:29.263Z,95209.83
2018-12-13T14:53:58.555Z,95210.06
2018-12-13T14:56:27.844Z,95209.10
2018-12-13T14:58:57.060Z,95206.95
2018-12-13T15:01:26.877Z,95204.01
2018-12-13T15:03:56.468Z,95207.14
2018-12-13T15:06:25.859Z,95202.80
2018-12-13T15:08:55.197Z,95200.44
2018-12-13T15:11:24.575Z,95193.95
2018-12-13T15:13:53.905Z,95201.25
2018-12-13T15:16:23.187Z,95203.86
2018-12-13T15:18:52.391Z,95206.25
2018-12-13T15:21:21.693Z,95205.27
2018-12-13T15:23:50.913Z,95205.70
2018-12-13T15:26:20.379Z,95204.61
2018-12-13T15:28:49.703Z,95207.22
2018-12-13T15:31:19.096Z,95215.34
2018-12-13T15:33:48.505Z,95209.97
2018-12-13T15:36:17.803Z,95208.31
2018-12-13T15:38:47.199Z,95208.77
2018-12-13T15:41:16.406Z,95207.34
2018-12-13T15:43:45.647Z,95214.87
2018-12-13T15:46:14.800Z,95202.23
2018-12-13T15:48:44.200Z,95204.45
2018-12-13T15:51:13.591Z,95204.02
2018-12-13T15:53:42.905Z,95201.34
2018-12-13T15:56:12.295Z,95196.87
2018-12-13T15:58:41.518Z,95197.44
2018-12-13T16:01:10.911Z,95190.30
2018-12-13T16:03:40.231Z,95196.19
2018-12-13T16:06:09.608Z,95195.90
2018-12-13T16:08:38.892Z,95193.75
2018-12-13T16:11:08.102Z,95196.79
2018-12-13T16:13:37.335Z,95195.83
2018-12-13T16:16:07.426Z,95202.52
2018-12-13T16:18:36.700Z,95195.13
2018-12-13T16:21:06.050Z,95194.24
2018-12-13T16:23:35.444Z,95197.38
2018-12-13T16:26:04.731Z,95197.09
2018-12-13T16:28:34.048Z,95202.28
2018-12-13T16:31:03.240Z,95191.13
2018-12-13T16:33:32.457Z,95186.80
2018-12-13T16:36:01.880Z,95196.72
2018-12-13T16:38:31.145Z,95202.00
2018-12-13T16:41:00.357Z,95201.39
2018-12-13T16:43:29.651Z,95191.94
2018-12-13T16:45:58.855Z,95194.25
2018-12-13T16:48:28.202Z,95194.34
2018-12-13T16:50:57.554Z,95190.37
2018-12-13T16:53:26.971Z,95190.97
2018-12-13T16:55:56.360Z,95186.80
2018-12-13T16:58:25.471Z,95195.56
2018-12-13T17:00:54.863Z,95187.68
2018-12-13T17:03:36.652Z,95182.70
2018-12-13T17:06:06.800Z,95185.54
2018-12-13T17:08:36.080Z,95179.84
2018-12-13T17:11:05.592Z,95175.19
2018-12-13T17:13:34.822Z,95172.22
2018-12-13T17:16:03.989Z,95170.27
2018-12-13T17:18:33.314Z,95172.78
2018-12-13T17:21:02.854Z,95177.29
2018-12-13T17:23:32.395Z,95174.21
2018-12-13T17:26:03.242Z,95173.14
2018-12-13T17:28:33.983Z,95163.72
2018-12-13T17:31:03.493Z,95160.60
2018-12-13T17:33:32.889Z,95167.86
2018-12-13T17:36:02.273Z,95164.37
2018-12-13T17:38:31.589Z,95163.47
2018-12-13T17:41:00.978Z,95168.02
2018-12-13T17:43:30.179Z,95172.30
2018-12-13T17:45:59.905Z,95183.61
2018-12-13T17:48:29.102Z,95189.34
2018-12-13T17:50:58.306Z,95186.20
2018-12-13T17:53:28.007Z,95207.09
2018-12-13T17:55:57.708Z,95209.39
2018-12-13T17:58:27.020Z,95202.47
2018-12-13T18:00:56.319Z,95204.86
2018-12-13T18:03:25.820Z,95206.63
2018-12-13T18:05:55.014Z,95208.00
2018-12-13T18:08:25.121Z,95217.69
2018-12-13T18:10:55.140Z,95208.98
2018-12-13T18:13:24.567Z,95208.98
2018-12-13T18:15:54.065Z,95202.47
2018-12-13T18:18:23.283Z,95203.08
2018-12-13T18:20:52.581Z,95201.59
2018-12-13T18:23:22.863Z,95203.61
2018-12-13T18:25:52.094Z,95205.61
2018-12-13T18:28:21.298Z,95197.14
2018-12-13T18:30:50.906Z,95205.93
2018-12-13T18:33:20.476Z,95209.95
2018-12-13T18:35:49.941Z,95210.23
2018-12-13T18:38:20.446Z,95210.53
2018-12-13T18:40:50.274Z,95205.17
2018-12-13T18:43:20.341Z,95203.30
2018-12-13T18:45:49.695Z,95205.58
2018-12-13T18:48:19.239Z,95206.83
2018-12-13T18:50:49.859Z,95211.75
2018-12-13T18:53:19.376Z,95210.09
2018-12-13T18:55:49.574Z,95213.98
2018-12-13T18:58:19.067Z,95219.42
2018-12-13T19:00:48.447Z,95218.62
2018-12-13T19:03:18.085Z,95217.54
2018-12-13T19:05:47.790Z,95219.31
2018-12-13T19:08:17.249Z,95213.61
2018-12-13T19:10:46.961Z,95218.27
2018-12-13T19:13:16.260Z,95224.44
2018-12-13T19:15:45.921Z,95232.12
2018-12-13T19:18:15.318Z,95228.27
2018-12-13T19:20:45.621Z,95214.82
2018-12-13T19:23:15.661Z,95205.34
2018-12-13T19:25:46.405Z,95200.22
2018-12-13T19:28:15.749Z,95203.04
2018-12-13T19:30:45.184Z,95204.17
2018-12-13T19:33:14.464Z,95209.97
2018-12-13T19:35:44.711Z,95208.48
2018-12-13T19:38:14.155Z,95202.75
2018-12-13T19:40:48.360Z,95206.77
2018-12-13T19:43:15.346Z,95212.65
2018-12-13T19:45:45.293Z,95220.45
2018-12-13T19:48:15.053Z,95229.81
2018-12-13T19:50:45.247Z,95240.67
2018-12-13T19:53:14.801Z,95238.08
2018-12-13T19:55:44.352Z,95226.23
2018-12-13T19:58:13.548Z,95218.90
2018-12-13T20:00:43.300Z,95207.73
2018-12-13T20:03:13.060Z,95213.75
2018-12-13T20:05:42.504Z,95228.10
2018-12-13T20:08:11.991Z,95221.87
2018-12-13T20:10:41.748Z,95216.43
2018-12-13T20:13:12.245Z,95216.61
2018-12-13T20:15:41.724Z,95216.19
2018-12-13T20:18:12.655Z,95222.84
2018-12-13T20:20:42.188Z,95219.78
2018-12-13T20:23:11.404Z,95221.15
2018-12-13T20:25:41.068Z,95213.70
2018-12-13T20:28:11.418Z,95207.81
2018-12-13T20:30:41.096Z,95222.84
2018-12-13T20:33:10.248Z,95213.02
2018-12-13T20:35:39.591Z,95214.79
2018-12-13T20:38:08.917Z,95205.56
2018-12-13T20:40:38.332Z,95195.39
2018-12-13T20:43:07.623Z,95193.88
2018-12-13T20:45:36.932Z,95197.89
2018-12-13T20:48:06.319Z,95197.53
2018-12-13T20:50:35.539Z,95199.69
2018-12-13T20:53:04.860Z,95197.14
2018-12-13T20:55:34.588Z,95197.75
2018-12-13T20:58:03.940Z,95200.27
2018-12-13T21:00:33.248Z,95197.59
2018-12-13T21:03:03.147Z,95190.00
2018-12-13T21:05:32.567Z,95194.83
2018-12-13T21:08:06.647Z,95193.05
2018-12-13T21:10:36.184Z,95195.00
2018-12-13T21:13:05.507Z,95191.50
2018-12-13T21:15:34.804Z,95189.80
2018-12-13T21:18:04.275Z,95190.00
2018-12-13T21:20:33.693Z,95184.03
2018-12-13T21:23:02.980Z,95184.27
2018-12-13T21:25:32.310Z,95185.61
2018-12-13T21:28:01.700Z,95187.56
2018-12-13T21:30:31.028Z,95194.17
2018-12-13T21:33:00.623Z,95196.05
2018-12-13T21:35:30.220Z,95191.86
2018-12-13T21:37:59.645Z,95188.66
2018-12-13T21:40:28.925Z,95194.55
2018-12-13T21:42:58.239Z,95192.59
2018-12-13T21:45:27.636Z,95195.19
2018-12-13T21:47:57.137Z,95192.16
2018-12-13T21:50:26.635Z,95194.55
2018-12-13T21:52:56.035Z,95193.36
2018-12-13T21:55:25.247Z,95195.55
2018-12-13T21:57:54.752Z,95198.23
2018-12-13T22:00:24.147Z,95195.14
2018-12-13T22:02:53.484Z,95188.40
2018-12-13T22:05:22.871Z,95180.69
2018-12-13T22:07:52.174Z,95177.04
2018-12-13T22:10:21.571Z,95176.31
2018-12-13T22:12:50.883Z,95177.11
2018-12-13T22:15:20.204Z,95185.14
2018-12-13T22:17:49.667Z,95183.05
2018-12-13T22:20:18.989Z,95182.06
2018-12-13T22:22:48.288Z,95179.03
2018-12-13T22:25:17.609Z,95172.05
2018-12-13T22:27:47.076Z,95170.63
2018-12-13T22:30:16.497Z,95162.73
2018-12-13T22:32:45.990Z,95168.23
2018-12-13T22:35:15.399Z,95175.82
2018-12-13T22:37:44.803Z,95170.02
2018-12-13T22:40:14.125Z,95174.72
2018-12-13T22:42:43.344Z,95175.45
2018-12-13T22:45:12.807Z,95162.50
2018-12-13T22:47:42.228Z,95162.34
2018-12-13T22:50:11.541Z,95161.16
2018-12-13T22:52:40.927Z,95150.61
2018-12-13T22:55:10.256Z,95152.66
2018-12-13T22:57:39.724Z,95153.23
2018-12-13T23:00:10.636Z,95134.98
2018-12-13T23:02:39.980Z,95129.84
2018-12-13T23:05:09.296Z,95139.45
2018-12-13T23:07:38.562Z,95150.88
2018-12-13T23:10:07.891Z,95148.94
2018-12-13T23:12:37.379Z,95161.87
2018-12-13T23:15:06.780Z,95166.42
2018-12-13T23:17:36.224Z,95166.33
2018-12-13T23:20:05.534Z,95171.31
2018-12-13T23:22:34.821Z,95172.41
2018-12-13T23:25:04.284Z,95164.19
2018-12-13T23:27:33.719Z,95170.99
2018-12-13T23:30:03.140Z,95164.70
2018-12-13T23:32:32.441Z,95163.20
2018-12-13T23:35:01.732Z,95172.73
2018-12-13T23:37:31.201Z,95176.95
2018-12-13T23:40:00.711Z,95165.27
2018-12-13T23:42:30.114Z,95165.34
2018-12-13T23:44:59.559Z,95170.94
2018-12-13T23:47:28.858Z,95173.00
2018-12-13T23:49:58.321Z,95162.41
2018-12-13T23:52:27.823Z,95171.66
2018-12-13T23:54:57.297Z,95177.11
2018-12-13T23:57:26.643Z,95186.38
2018-12-13T23:59:56.060Z,95190.69
